Time;durP1;ratioP1;P1;durP2;ratioP2;P2;SDS_P1;SDS_P2;PMS_P1;PMS_P2;Temp;Humidity;BMP_temperature;BMP_pressure;BME280_temperature;BME280_humidity;BME280_pressure;Samples;Min_cycle;Max_cycle;Signal;HPM_P1;HPM_P2
2022/12/23 00:01:00;;;;;;;57.37;32.00;;;5.30;95.80;;;;;;5021512;28;20185;-93
2022/12/23 00:03:29;;;;;;;57.73;32.57;;;5.30;95.80;;;;;;5022123;28;20177;-93
2022/12/23 00:05:55;;;;;;;58.37;32.10;;;5.20;95.80;;;;;;5021153;28;20209;-92
2022/12/23 00:08:21;;;;;;;58.83;33.97;;;5.30;95.80;;;;;;5020826;28;20176;-93
2022/12/23 00:10:49;;;;;;;58.90;31.43;;;5.20;95.80;;;;;;5023022;28;20623;-93
2022/12/23 00:16:11;;;;;;;58.03;30.83;;;5.30;95.80;;;;;;5019136;28;20209;-93
2022/12/23 00:18:37;;;;;;;52.47;31.10;;;5.20;95.80;;;;;;5017018;28;20212;-93
2022/12/23 00:21:05;;;;;;;54.83;30.67;;;5.30;95.80;;;;;;5015977;28;20178;-93
2022/12/23 00:23:33;;;;;;;54.80;30.73;;;5.30;95.80;;;;;;5017908;28;20185;-93
2022/12/23 00:25:59;;;;;;;59.97;32.73;;;5.30;95.80;;;;;;5016981;28;20573;-93
2022/12/23 00:28:25;;;;;;;57.13;35.73;;;5.30;95.80;;;;;;5017576;28;20185;-93
2022/12/23 00:31:01;;;;;;;59.57;37.23;;;5.20;95.80;;;;;;5017399;28;20263;-93
2022/12/23 00:33:38;;;;;;;64.87;37.23;;;5.20;95.80;;;;;;5018555;28;20176;-93
2022/12/23 00:36:21;;;;;;;64.10;37.07;;;5.10;95.80;;;;;;5016420;28;20188;-93
2022/12/23 00:44:25;;;;;;;73.00;39.00;;;5.00;95.90;;;;;;5017561;28;20215;-93
2022/12/23 00:46:51;;;;;;;73.33;38.40;;;5.10;95.90;;;;;;5016956;28;20201;-93
2022/12/23 00:49:41;;;;;;;69.23;38.93;;;5.00;95.90;;;;;;5015682;28;20262;-93
2022/12/23 00:52:09;;;;;;;65.50;38.67;;;5.00;95.90;;;;;;5020755;28;20217;-94
2022/12/23 00:54:35;;;;;;;63.57;36.93;;;5.00;95.90;;;;;;5022132;28;20276;-92
2022/12/23 00:57:00;;;;;;;71.97;36.07;;;5.00;95.90;;;;;;5022045;28;20247;-93
2022/12/23 00:59:26;;;;;;;73.40;38.30;;;4.90;95.90;;;;;;5018733;28;20227;-93
2022/12/23 01:07:28;;;;;;;69.63;38.47;;;5.00;96.00;;;;;;4999434;28;20184;-94
2022/12/23 01:09:54;;;;;;;73.77;39.17;;;5.00;96.00;;;;;;5021801;28;20651;-94
2022/12/23 01:12:19;;;;;;;63.50;38.10;;;5.00;96.00;;;;;;5021854;28;20259;-94
2022/12/23 01:14:45;;;;;;;59.93;37.00;;;5.00;96.00;;;;;;5021224;28;20442;-94
2022/12/23 01:17:10;;;;;;;57.53;37.57;;;5.10;96.00;;;;;;5020687;28;20185;-94
2022/12/23 01:19:36;;;;;;;64.53;37.10;;;5.20;96.00;;;;;;5020622;28;20174;-94
2022/12/23 01:22:02;;;;;;;52.17;37.57;;;5.20;96.00;;;;;;5017468;28;20560;-93
2022/12/23 01:24:31;;;;;;;62.23;39.53;;;5.20;96.00;;;;;;5028812;28;20203;-92
2022/12/23 01:27:00;;;;;;;59.33;38.93;;;5.20;96.00;;;;;;5033220;28;20200;-95
2022/12/23 01:29:26;;;;;;;66.67;40.57;;;5.10;96.00;;;;;;5029055;28;20245;-94
2022/12/23 01:31:51;;;;;;;64.37;41.17;;;5.10;96.00;;;;;;5030959;28;20212;-94
2022/12/23 01:34:17;;;;;;;66.90;41.27;;;5.00;96.00;;;;;;5034142;28;20185;-93
2022/12/23 01:36:43;;;;;;;60.00;40.17;;;5.00;96.00;;;;;;5026366;28;20530;-94
2022/12/23 01:39:08;;;;;;;72.93;41.17;;;5.00;96.00;;;;;;5025499;28;20177;-93
2022/12/23 01:45:03;;;;;;;72.20;40.00;;;4.80;96.00;;;;;;5020708;28;20197;-94
2022/12/23 01:47:28;;;;;;;81.13;41.00;;;4.90;96.00;;;;;;5012333;28;20308;-93
2022/12/23 01:50:04;;;;;;;77.50;38.70;;;4.90;96.10;;;;;;5014153;28;20213;-93
2022/12/23 01:52:33;;;;;;;76.40;40.13;;;4.90;96.10;;;;;;5015557;28;20180;-93
2022/12/23 01:54:59;;;;;;;78.17;38.00;;;4.80;96.10;;;;;;5014693;28;20197;-93
2022/12/23 01:57:25;;;;;;;76.37;39.27;;;4.80;96.10;;;;;;5015550;28;20196;-93
2022/12/23 02:05:22;;;;;;;74.83;40.47;;;4.80;96.20;;;;;;5016197;28;20259;-93
2022/12/23 02:11:14;;;;;;;71.10;40.13;;;4.90;96.20;;;;;;5016035;28;20192;-93
2022/12/23 02:17:05;;;;;;;84.07;41.87;;;4.90;96.30;;;;;;5015761;28;20208;-93
2022/12/23 02:19:57;;;;;;;74.87;41.30;;;4.90;96.30;;;;;;5015301;28;20173;-93
2022/12/23 02:22:47;;;;;;;84.93;41.97;;;4.90;96.30;;;;;;5016168;28;20211;-93
2022/12/23 02:25:19;;;;;;;87.03;42.43;;;4.90;96.30;;;;;;5016236;28;20219;-93
2022/12/23 02:28:21;;;;;;;78.13;42.33;;;4.90;96.30;;;;;;5014596;28;20572;-93
2022/12/23 02:31:09;;;;;;;95.40;42.77;;;4.80;96.30;;;;;;5014371;28;20219;-93
2022/12/23 02:33:41;;;;;;;88.87;41.30;;;4.90;96.30;;;;;;5014758;28;20219;-93
2022/12/23 02:36:42;;;;;;;81.93;40.33;;;4.80;96.30;;;;;;5015389;28;20170;-93
2022/12/23 02:39:12;;;;;;;87.00;41.97;;;4.80;96.40;;;;;;5014048;28;20183;-93
2022/12/23 02:41:55;;;;;;;95.00;43.50;;;4.80;96.40;;;;;;5013873;28;20271;-93
2022/12/23 02:44:59;;;;;;;88.03;40.30;;;4.80;96.40;;;;;;5013955;28;20200;-93
2022/12/23 02:47:47;;;;;;;82.13;38.13;;;4.80;96.40;;;;;;4991737;28;20192;-93
2022/12/23 02:50:35;;;;;;;90.60;40.53;;;4.80;96.40;;;;;;5013647;28;20169;-93
2022/12/23 02:53:12;;;;;;;77.67;36.77;;;4.80;96.40;;;;;;5013743;28;20186;-93
2022/12/23 02:55:42;;;;;;;79.30;38.33;;;4.80;96.40;;;;;;5014224;28;20201;-93
2022/12/23 02:58:11;;;;;;;88.67;40.67;;;4.90;96.40;;;;;;5015017;28;20177;-93
2022/12/23 03:00:39;;;;;;;78.60;39.03;;;4.90;96.40;;;;;;5016986;28;20635;-94
2022/12/23 03:03:05;;;;;;;79.73;39.00;;;4.90;96.40;;;;;;5017614;28;20178;-93
2022/12/23 03:05:46;;;;;;;86.57;41.93;;;4.90;96.50;;;;;;5016260;28;20209;-93
2022/12/23 03:08:24;;;;;;;90.60;40.77;;;4.90;96.50;;;;;;5015179;28;20212;-94
2022/12/23 03:11:15;;;;;;;90.73;39.97;;;4.90;96.50;;;;;;5017107;28;20200;-93
2022/12/23 03:13:44;;;;;;;90.43;38.97;;;5.00;96.50;;;;;;5017122;28;20244;-93
2022/12/23 03:16:20;;;;;;;96.83;38.83;;;4.90;96.50;;;;;;5016837;28;20577;-93
2022/12/23 03:19:32;;;;;;;81.27;39.03;;;4.90;96.50;;;;;;5014802;28;20196;-93
2022/12/23 03:22:18;;;;;;;97.90;38.13;;;4.90;96.50;;;;;;4998719;28;20190;-93
2022/12/23 03:24:56;;;;;;;86.07;38.83;;;4.80;96.50;;;;;;5013741;28;20204;-93
2022/12/23 03:27:46;;;;;;;87.23;40.83;;;4.80;96.60;;;;;;5013487;28;20200;-93
2022/12/23 03:30:15;;;;;;;98.00;41.97;;;4.80;96.60;;;;;;5012265;28;20224;-93
2022/12/23 03:33:11;;;;;;;94.20;42.13;;;4.80;96.60;;;;;;5012796;28;20178;-93
2022/12/23 03:35:44;;;;;;;99.27;44.43;;;4.80;96.60;;;;;;5014920;28;20217;-94
2022/12/23 03:38:13;;;;;;;117.13;45.27;;;4.80;96.60;;;;;;5015763;28;20173;-94
2022/12/23 03:40:56;;;;;;;117.87;46.77;;;4.90;96.70;;;;;;5017268;28;20184;-93
2022/12/23 03:43:27;;;;;;;114.63;46.20;;;4.90;96.70;;;;;;5016808;28;20178;-93
2022/12/23 03:46:07;;;;;;;113.53;47.57;;;5.00;96.70;;;;;;5016080;28;20243;-94
2022/12/23 03:48:38;;;;;;;112.67;46.73;;;4.90;96.70;;;;;;5016208;28;20678;-93
2022/12/23 03:51:23;;;;;;;122.03;44.73;;;5.00;96.70;;;;;;5014882;28;20624;-93
2022/12/23 03:53:53;;;;;;;122.80;48.13;;;4.90;96.70;;;;;;5014217;28;20176;-93
2022/12/23 03:56:37;;;;;;;122.17;49.70;;;5.00;96.70;;;;;;5013884;28;20181;-94
2022/12/23 03:59:13;;;;;;;135.70;48.37;;;5.00;96.80;;;;;;5013010;28;20185;-93
2022/12/23 04:02:20;;;;;;;138.20;51.07;;;5.00;96.80;;;;;;5015256;28;20635;-93
2022/12/23 04:05:19;;;;;;;134.47;50.83;;;5.00;96.80;;;;;;5017268;28;20208;-93
2022/12/23 04:08:00;;;;;;;143.63;50.37;;;5.00;96.80;;;;;;5016721;28;20253;-93
2022/12/23 04:10:27;;;;;;;132.83;49.03;;;5.00;96.80;;;;;;5019507;28;20197;-93
2022/12/23 04:12:53;;;;;;;139.97;49.77;;;5.00;96.80;;;;;;5020537;28;20193;-94
2022/12/23 04:15:23;;;;;;;138.33;51.03;;;5.00;96.80;;;;;;5018330;28;20316;-93
2022/12/23 04:17:51;;;;;;;151.20;53.23;;;5.00;96.80;;;;;;5017119;28;20177;-93
2022/12/23 04:20:17;;;;;;;164.13;56.63;;;5.10;96.80;;;;;;5016645;28;20272;-93
2022/12/23 04:22:42;;;;;;;180.80;59.33;;;5.10;96.90;;;;;;5016152;28;20596;-93
2022/12/23 04:25:11;;;;;;;150.83;55.47;;;5.20;96.90;;;;;;5016094;28;20228;-93
2022/12/23 04:27:37;;;;;;;144.70;52.63;;;5.20;96.90;;;;;;5016972;28;20271;-93
2022/12/23 04:30:05;;;;;;;161.30;55.00;;;5.20;96.90;;;;;;5016593;28;20185;-93
2022/12/23 04:32:30;;;;;;;142.07;53.37;;;5.20;96.90;;;;;;5017658;28;20169;-94
2022/12/23 04:34:56;;;;;;;165.70;54.67;;;5.20;96.90;;;;;;5016206;28;20220;-93
2022/12/23 04:37:21;;;;;;;170.10;57.53;;;5.20;96.90;;;;;;5016021;28;20223;-93
2022/12/23 04:39:47;;;;;;;163.83;55.87;;;5.10;96.90;;;;;;5015745;28;20186;-93
2022/12/23 04:42:13;;;;;;;166.97;56.77;;;5.20;96.90;;;;;;5015618;28;20181;-93
2022/12/23 04:44:38;;;;;;;162.60;55.57;;;5.20;96.90;;;;;;5016025;28;20208;-94
2022/12/23 04:47:04;;;;;;;166.27;56.80;;;5.20;96.90;;;;;;5016656;28;20189;-93
2022/12/23 04:49:30;;;;;;;160.40;54.73;;;5.20;96.90;;;;;;5015726;28;20275;-93
2022/12/23 04:51:56;;;;;;;185.07;57.53;;;5.20;96.90;;;;;;5015878;28;20216;-93
2022/12/23 04:54:21;;;;;;;177.63;58.97;;;5.20;97.00;;;;;;5015323;28;20631;-93
2022/12/23 04:56:52;;;;;;;176.30;55.97;;;5.30;97.00;;;;;;5016429;28;20182;-93
2022/12/23 04:59:19;;;;;;;162.27;53.90;;;5.30;96.90;;;;;;5016182;28;20296;-93
2022/12/23 05:01:44;;;;;;;187.73;55.43;;;5.30;97.00;;;;;;5015654;28;20614;-93
2022/12/23 05:04:10;;;;;;;175.47;55.93;;;5.20;97.00;;;;;;5015608;28;20215;-93
2022/12/23 05:06:36;;;;;;;181.50;58.80;;;5.30;97.00;;;;;;5015099;28;20304;-93
2022/12/23 05:09:03;;;;;;;193.27;56.73;;;5.20;97.00;;;;;;5014573;28;20229;-93
2022/12/23 05:11:29;;;;;;;200.57;60.10;;;5.20;97.00;;;;;;5015095;28;20190;-93
2022/12/23 05:13:55;;;;;;;200.63;58.87;;;5.10;97.00;;;;;;5013639;28;20666;-93
2022/12/23 05:16:20;;;;;;;185.77;59.33;;;5.10;97.00;;;;;;5014345;28;20215;-93
2022/12/23 05:18:46;;;;;;;201.37;60.30;;;5.20;97.00;;;;;;5014462;28;20190;-93
2022/12/23 05:21:12;;;;;;;194.30;55.83;;;5.10;97.00;;;;;;5014604;28;20681;-93
2022/12/23 05:23:37;;;;;;;201.10;59.13;;;5.20;97.00;;;;;;5014034;28;20185;-93
2022/12/23 05:26:03;;;;;;;188.87;57.20;;;5.20;97.00;;;;;;5013814;28;20613;-93
2022/12/23 05:28:28;;;;;;;204.00;59.53;;;5.10;97.00;;;;;;5013924;28;20184;-92
2022/12/23 05:31:03;;;;;;;202.37;58.23;;;5.20;97.00;;;;;;5014014;28;20174;-93
2022/12/23 05:33:29;;;;;;;241.87;57.60;;;5.20;97.00;;;;;;5014996;28;20169;-93
2022/12/23 05:35:55;;;;;;;368.47;60.67;;;5.20;97.10;;;;;;5014441;28;20199;-93
2022/12/23 05:38:21;;;;;;;419.90;58.23;;;5.20;97.10;;;;;;5013681;28;20260;-93
2022/12/23 05:40:47;;;;;;;367.00;61.73;;;5.30;97.10;;;;;;5014012;28;20644;-94
2022/12/23 05:43:13;;;;;;;485.53;61.90;;;5.30;97.10;;;;;;5013734;28;20569;-93
2022/12/23 05:45:38;;;;;;;447.10;59.03;;;5.30;97.10;;;;;;5014191;28;20709;-93
2022/12/23 05:48:04;;;;;;;265.20;56.10;;;5.30;97.10;;;;;;5014727;28;20538;-93
2022/12/23 05:50:29;;;;;;;535.27;63.47;;;5.30;97.20;;;;;;5014815;28;20208;-93
2022/12/23 05:52:56;;;;;;;477.77;62.53;;;5.30;97.10;;;;;;5014640;28;20686;-93
2022/12/23 05:55:24;;;;;;;478.37;63.57;;;5.30;97.20;;;;;;5014459;28;20593;-93
2022/12/23 05:57:51;;;;;;;540.70;65.33;;;5.30;97.20;;;;;;5013836;28;20235;-93
2022/12/23 06:00:17;;;;;;;573.60;70.80;;;5.30;97.20;;;;;;5013318;28;20709;-93
2022/12/23 06:02:43;;;;;;;427.53;64.13;;;5.30;97.20;;;;;;5013413;28;20177;-93
2022/12/23 06:05:09;;;;;;;531.30;66.83;;;5.30;97.20;;;;;;5013601;28;20205;-93
2022/12/23 06:07:35;;;;;;;538.67;66.73;;;5.30;97.20;;;;;;5014485;28;20261;-93
2022/12/23 06:10:01;;;;;;;364.27;61.00;;;5.30;97.20;;;;;;5013051;28;20232;-93
2022/12/23 06:12:26;;;;;;;628.50;66.93;;;5.30;97.30;;;;;;5014432;28;20205;-93
2022/12/23 06:14:52;;;;;;;517.83;59.87;;;5.30;97.20;;;;;;5012905;28;20710;-93
2022/12/23 06:17:18;;;;;;;548.10;65.33;;;5.30;97.20;;;;;;5013058;28;20176;-93
2022/12/23 06:19:43;;;;;;;469.23;58.13;;;5.30;97.30;;;;;;5012806;28;20548;-93
2022/12/23 06:22:09;;;;;;;488.07;61.20;;;5.30;97.30;;;;;;5016002;28;20632;-93
2022/12/23 06:24:35;;;;;;;466.67;62.77;;;5.30;97.30;;;;;;5013546;28;20190;-93
2022/12/23 06:27:00;;;;;;;587.53;67.93;;;5.40;97.30;;;;;;5012937;28;20216;-93
2022/12/23 06:29:26;;;;;;;481.33;60.87;;;5.30;97.30;;;;;;5012861;28;20185;-94
2022/12/23 06:31:51;;;;;;;574.70;62.23;;;5.30;97.30;;;;;;5013054;28;20203;-92
2022/12/23 06:34:17;;;;;;;440.97;60.30;;;5.30;97.30;;;;;;5012646;28;20636;-93
2022/12/23 06:36:43;;;;;;;465.47;56.63;;;5.30;97.30;;;;;;5013349;28;20252;-93
2022/12/23 06:39:09;;;;;;;533.77;61.00;;;5.30;97.30;;;;;;5013167;28;20231;-93
2022/12/23 06:41:35;;;;;;;365.23;55.60;;;5.30;97.30;;;;;;5012929;28;20173;-93
2022/12/23 06:44:00;;;;;;;541.10;64.30;;;5.30;97.30;;;;;;5012949;28;20291;-93
2022/12/23 06:46:26;;;;;;;586.00;66.13;;;5.30;97.30;;;;;;5012711;28;20201;-93
2022/12/23 06:48:51;;;;;;;525.70;62.53;;;5.30;97.30;;;;;;5014263;28;20170;-92
2022/12/23 06:51:17;;;;;;;499.00;62.50;;;5.30;97.40;;;;;;5013152;28;20173;-93
2022/12/23 06:53:43;;;;;;;648.17;65.80;;;5.30;97.30;;;;;;5012726;28;20257;-93
2022/12/23 06:56:08;;;;;;;471.43;60.77;;;5.30;97.30;;;;;;5014092;28;20185;-93
2022/12/23 06:58:37;;;;;;;340.00;56.50;;;5.30;97.40;;;;;;5014487;28;20236;-94
2022/12/23 07:01:02;;;;;;;604.20;63.47;;;5.30;97.40;;;;;;5014410;28;20181;-93
2022/12/23 07:03:28;;;;;;;638.93;64.13;;;5.30;97.40;;;;;;5013102;28;20177;-93
2022/12/23 07:05:53;;;;;;;485.87;58.37;;;5.30;97.30;;;;;;5012728;28;20236;-93
2022/12/23 07:08:20;;;;;;;263.90;54.73;;;5.30;97.40;;;;;;5012673;28;20181;-93
2022/12/23 07:10:58;;;;;;;553.23;64.77;;;5.30;97.40;;;;;;5012781;28;20260;-93
2022/12/23 07:13:23;;;;;;;508.63;57.33;;;5.30;97.40;;;;;;5014517;28;20684;-93
2022/12/23 07:15:49;;;;;;;601.77;64.17;;;5.30;97.40;;;;;;5012940;28;20193;-93
2022/12/23 07:18:14;;;;;;;600.97;65.53;;;5.30;97.40;;;;;;5013591;28;20542;-93
2022/12/23 07:20:40;;;;;;;631.70;65.93;;;5.30;97.40;;;;;;5013579;28;20227;-93
2022/12/23 07:23:09;;;;;;;731.90;73.27;;;5.30;97.40;;;;;;5013852;28;20643;-93
2022/12/23 07:25:34;;;;;;;663.60;67.30;;;5.30;97.40;;;;;;5011941;28;20718;-93
2022/12/23 07:28:00;;;;;;;532.30;61.27;;;5.30;97.40;;;;;;5012456;28;20170;-93
2022/12/23 07:30:26;;;;;;;652.53;65.17;;;5.30;97.40;;;;;;5012158;28;20177;-93
2022/12/23 07:32:52;;;;;;;608.93;67.13;;;5.30;97.40;;;;;;5013401;28;20180;-93
2022/12/23 07:35:18;;;;;;;655.20;70.03;;;5.30;97.40;;;;;;5012437;28;20725;-93
2022/12/23 07:37:43;;;;;;;600.03;64.73;;;5.30;97.40;;;;;;5015852;28;20178;-93
2022/12/23 07:40:10;;;;;;;525.03;57.77;;;5.30;97.50;;;;;;5017039;28;20178;-90
2022/12/23 07:42:35;;;;;;;546.37;64.63;;;5.30;97.50;;;;;;5015605;28;20235;-91
2022/12/23 07:45:01;;;;;;;541.60;63.23;;;5.30;97.50;;;;;;5015781;28;20667;-90
2022/12/23 07:47:27;;;;;;;552.47;62.37;;;5.30;97.50;;;;;;5019222;28;20201;-93
2022/12/23 07:49:52;;;;;;;562.53;64.57;;;5.30;97.50;;;;;;5017764;28;20170;-93
2022/12/23 07:52:21;;;;;;;573.43;64.73;;;5.40;97.50;;;;;;5016731;28;20217;-93
2022/12/23 07:54:47;;;;;;;476.17;62.27;;;5.40;97.50;;;;;;5020200;28;20197;-93
2022/12/23 07:57:12;;;;;;;579.20;66.20;;;5.40;97.50;;;;;;5018250;28;20223;-92
2022/12/23 07:59:38;;;;;;;525.63;67.07;;;5.40;97.50;;;;;;5017971;28;20227;-93
2022/12/23 08:02:03;;;;;;;546.43;62.10;;;5.40;97.50;;;;;;5015798;28;20173;-93
2022/12/23 08:04:29;;;;;;;606.07;66.17;;;5.40;97.50;;;;;;5015996;28;20190;-92
2022/12/23 08:06:54;;;;;;;505.50;66.60;;;5.40;97.50;;;;;;5016394;28;20690;-93
2022/12/23 08:09:20;;;;;;;543.73;61.10;;;5.50;97.50;;;;;;5017409;28;20174;-94
2022/12/23 08:11:46;;;;;;;334.73;56.90;;;5.50;97.50;;;;;;5015847;28;20221;-92
2022/12/23 08:14:11;;;;;;;359.63;58.57;;;5.50;97.50;;;;;;5015371;28;20201;-92
2022/12/23 08:16:37;;;;;;;557.10;64.57;;;5.50;97.60;;;;;;5016280;28;20189;-90
2022/12/23 08:19:02;;;;;;;496.77;61.60;;;5.50;97.50;;;;;;5015363;28;20184;-91
2022/12/23 08:21:28;;;;;;;421.33;60.53;;;5.50;97.50;;;;;;5016470;28;20173;-89
2022/12/23 08:23:53;;;;;;;520.97;61.93;;;5.50;97.50;;;;;;5014897;28;20185;-92
2022/12/23 08:26:21;;;;;;;479.63;60.87;;;5.40;97.50;;;;;;5015533;28;20209;-91
2022/12/23 08:28:47;;;;;;;459.13;59.77;;;5.50;97.60;;;;;;5016383;28;20193;-91
2022/12/23 08:31:18;;;;;;;539.40;65.57;;;5.50;97.50;;;;;;5016521;28;20208;-92
2022/12/23 08:33:47;;;;;;;254.80;54.73;;;5.50;97.60;;;;;;5015446;28;20188;-92
2022/12/23 08:36:15;;;;;;;502.43;63.07;;;5.50;97.60;;;;;;5016463;28;20182;-92
2022/12/23 08:38:41;;;;;;;304.70;55.23;;;5.50;97.60;;;;;;5015828;28;20181;-92
2022/12/23 08:41:12;;;;;;;393.33;55.67;;;5.50;97.60;;;;;;5018246;28;20770;-93
2022/12/23 08:43:37;;;;;;;288.47;53.93;;;5.50;97.60;;;;;;5016378;28;20200;-92
2022/12/23 08:46:03;;;;;;;325.60;53.90;;;5.60;97.60;;;;;;5014480;28;20678;-92
2022/12/23 08:48:29;;;;;;;351.33;53.60;;;5.60;97.60;;;;;;5014653;28;20635;-93
2022/12/23 08:50:54;;;;;;;327.17;55.17;;;5.60;97.60;;;;;;5015470;28;20192;-94
2022/12/23 08:53:20;;;;;;;282.60;55.00;;;5.60;97.60;;;;;;5022101;28;20177;-94
2022/12/23 08:55:48;;;;;;;289.33;52.97;;;5.70;97.60;;;;;;5027153;28;20193;-94
2022/12/23 08:58:15;;;;;;;287.40;54.57;;;5.70;97.60;;;;;;5032813;28;20181;-94
2022/12/23 09:00:40;;;;;;;233.90;52.60;;;5.60;97.60;;;;;;5035212;28;20185;-95
2022/12/23 09:03:07;;;;;;;236.90;49.77;;;5.70;97.60;;;;;;5031264;28;20185;-94
2022/12/23 09:05:33;;;;;;;232.07;50.23;;;5.80;97.60;;;;;;5027990;28;20266;-94
2022/12/23 09:07:59;;;;;;;254.10;51.00;;;5.80;97.60;;;;;;5039092;28;20193;-94
2022/12/23 09:10:25;;;;;;;306.60;51.87;;;5.70;97.60;;;;;;5036297;28;20180;-93
2022/12/23 09:12:51;;;;;;;331.77;50.43;;;5.80;97.60;;;;;;5022056;28;20208;-92
2022/12/23 09:15:37;;;;;;;268.30;48.30;;;5.70;97.60;;;;;;5024631;28;20197;-93
2022/12/23 09:23:27;;;;;;;231.50;48.53;;;5.80;97.70;;;;;;4286238;22;20241;-93
2022/12/23 09:25:56;;;;;;;205.17;44.20;;;5.80;97.70;;;;;;5090787;23;20228;-92
2022/12/23 09:28:22;;;;;;;188.63;41.67;;;5.80;97.70;;;;;;5028890;28;20184;-91
2022/12/23 09:31:10;;;;;;;193.10;42.90;;;5.90;97.60;;;;;;5025120;28;20204;-93
2022/12/23 09:38:58;;;;;;;186.80;40.47;;;5.90;97.60;;;;;;5391980;22;20311;-92
2022/12/23 09:41:51;;;;;;;193.23;44.27;;;5.90;97.70;;;;;;5020172;28;20627;-93
2022/12/23 09:47:28;;;;;;;198.40;42.03;;;5.90;97.70;;;;;;5015517;28;20189;-92
2022/12/23 09:50:02;;;;;;;198.60;42.83;;;5.90;97.70;;;;;;5013394;28;20635;-92
2022/12/23 09:56:05;;;;;;;210.63;44.80;;;5.90;97.70;;;;;;5017316;28;20263;-90
2022/12/23 09:58:55;;;;;;;198.65;44.35;;;5.90;97.70;;;;;;5023838;28;20180;-93
2022/12/23 10:01:24;;;;;;;196.93;43.23;;;6.00;97.70;;;;;;5024489;28;20177;-93
2022/12/23 10:04:20;;;;;;;207.20;46.63;;;6.00;97.70;;;;;;5014457;28;20178;-93
2022/12/23 10:07:22;;;;;;;188.90;43.67;;;6.00;97.70;;;;;;5018581;28;20193;-92
2022/12/23 10:09:51;;;;;;;214.37;44.13;;;6.10;97.70;;;;;;5016032;28;20177;-92
2022/12/23 10:12:45;;;;;;;225.90;48.47;;;6.10;97.70;;;;;;5014180;28;20561;-92
2022/12/23 10:15:32;;;;;;;210.37;48.37;;;6.10;97.70;;;;;;5016889;28;20197;-92
2022/12/23 10:21:25;;;;;;;222.37;47.30;;;6.10;97.70;;;;;;5023974;28;20189;-93
2022/12/23 10:29:13;;;;;;;213.83;47.33;;;6.20;97.70;;;;;;5033221;28;20217;-91
2022/12/23 10:32:20;;;;;;;218.40;48.10;;;6.10;97.70;;;;;;5034206;28;20207;-91
2022/12/23 10:35:26;;;;;;;202.13;46.97;;;6.10;97.70;;;;;;4961039;28;20201;-91
2022/12/23 10:38:10;;;;;;;199.47;46.83;;;6.20;97.70;;;;;;4997254;28;20173;-91
2022/12/23 10:41:22;;;;;;;210.87;47.83;;;6.20;97.70;;;;;;5002006;28;20165;-94
2022/12/23 10:59:28;;;;;;;199.10;47.70;;;6.20;97.70;;;;;;4206949;26;20230;-93
2022/12/23 11:02:11;;;;;;;205.90;49.60;;;6.20;97.70;;;;;;5077028;28;20168;-93
2022/12/23 11:04:37;;;;;;;211.13;47.23;;;6.30;97.70;;;;;;5065420;28;20200;-93
2022/12/23 11:07:03;;;;;;;195.00;45.87;;;6.20;97.70;;;;;;5051978;28;20200;-93
2022/12/23 11:09:51;;;;;;;176.57;46.97;;;6.30;97.70;;;;;;5049772;28;20203;-93
2022/12/23 11:12:22;;;;;;;186.47;45.50;;;6.30;97.70;;;;;;5047485;28;20203;-93
2022/12/23 11:14:56;;;;;;;195.27;45.43;;;6.30;97.70;;;;;;5043827;28;20271;-93
2022/12/23 11:17:29;;;;;;;174.40;46.57;;;6.30;97.70;;;;;;5055879;28;20203;-93
2022/12/23 11:20:10;;;;;;;202.80;46.73;;;6.30;97.70;;;;;;5037604;28;20211;-91
2022/12/23 11:22:57;;;;;;;186.17;45.70;;;6.30;97.70;;;;;;5038408;28;20199;-90
2022/12/23 11:25:41;;;;;;;191.77;46.13;;;6.30;97.70;;;;;;5038225;28;20559;-90
2022/12/23 11:28:09;;;;;;;210.20;47.07;;;6.30;97.70;;;;;;5037026;28;20169;-91
2022/12/23 11:30:55;;;;;;;163.07;43.27;;;6.30;97.70;;;;;;5037006;28;20203;-92
2022/12/23 11:33:34;;;;;;;177.67;45.07;;;6.30;97.70;;;;;;5036590;28;20215;-91
2022/12/23 11:36:13;;;;;;;169.13;44.97;;;6.30;97.70;;;;;;5037156;28;20192;-90
2022/12/23 11:39:00;;;;;;;159.33;43.47;;;6.30;97.70;;;;;;5037183;28;20200;-91
2022/12/23 11:41:41;;;;;;;151.00;41.70;;;6.30;97.70;;;;;;5037089;28;20161;-90
2022/12/23 11:44:46;;;;;;;171.90;44.15;;;6.40;97.70;;;;;;5036602;28;20658;-91
2022/12/23 11:47:21;;;;;;;163.53;42.47;;;6.40;97.70;;;;;;5037830;28;20220;-90
2022/12/23 11:50:10;;;;;;;144.00;40.17;;;6.40;97.70;;;;;;5035241;28;20660;-90
2022/12/23 11:52:36;;;;;;;144.50;40.90;;;6.40;97.70;;;;;;5025640;28;20193;-89
2022/12/23 11:55:04;;;;;;;162.93;43.57;;;6.50;97.70;;;;;;5038670;28;20216;-92
2022/12/23 11:57:43;;;;;;;152.17;40.77;;;6.50;97.70;;;;;;5041415;28;20218;-91
2022/12/23 12:00:26;;;;;;;162.83;40.53;;;6.50;97.70;;;;;;5056061;28;20168;-93
2022/12/23 12:02:58;;;;;;;173.03;44.10;;;6.60;97.70;;;;;;5051137;28;20247;-91
2022/12/23 12:05:39;;;;;;;161.80;40.90;;;6.60;97.70;;;;;;5037428;28;20638;-91
2022/12/23 12:08:14;;;;;;;164.30;41.87;;;6.60;97.70;;;;;;5036264;28;20688;-91
2022/12/23 12:10:41;;;;;;;139.03;39.73;;;6.60;97.70;;;;;;5036554;28;20622;-90
2022/12/23 12:13:29;;;;;;;174.97;45.40;;;6.60;97.70;;;;;;5035597;28;20263;-92
2022/12/23 12:16:20;;;;;;;149.17;40.83;;;6.60;97.70;;;;;;5039747;28;20679;-93
2022/12/23 12:18:46;;;;;;;142.90;40.60;;;6.70;97.70;;;;;;5041767;28;20180;-92
2022/12/23 12:21:20;;;;;;;141.90;39.07;;;6.80;97.70;;;;;;5041198;28;20177;-93
2022/12/23 12:23:50;;;;;;;132.83;40.70;;;6.90;97.70;;;;;;5040433;28;20219;-93
2022/12/23 12:26:25;;;;;;;134.10;39.47;;;6.90;97.70;;;;;;5039599;28;20215;-93
2022/12/23 12:29:15;;;;;;;122.47;37.57;;;6.90;97.70;;;;;;5040635;28;20196;-93
2022/12/23 12:31:53;;;;;;;115.23;37.17;;;6.90;97.70;;;;;;5046206;28;20549;-93
2022/12/23 12:34:30;;;;;;;109.93;35.13;;;6.90;97.70;;;;;;5044086;28;20283;-92
2022/12/23 12:37:19;;;;;;;107.43;33.97;;;6.90;97.70;;;;;;5044804;28;20558;-92
2022/12/23 12:39:53;;;;;;;82.10;32.20;;;6.90;97.70;;;;;;5048277;28;20695;-93
2022/12/23 12:42:40;;;;;;;76.10;28.97;;;6.80;97.70;;;;;;5045928;28;20173;-93
2022/12/23 12:45:23;;;;;;;78.27;28.47;;;6.80;97.70;;;;;;5046590;28;20199;-93
2022/12/23 12:48:24;;;;;;;75.37;30.27;;;6.70;97.60;;;;;;5046445;28;20173;-91
2022/12/23 12:51:24;;;;;;;83.83;30.50;;;6.80;97.70;;;;;;5041033;28;20176;-92
2022/12/23 12:54:17;;;;;;;80.77;31.40;;;6.80;97.70;;;;;;5035087;28;20214;-93
2022/12/23 12:56:47;;;;;;;81.80;32.73;;;6.80;97.60;;;;;;5040630;28;20177;-93
2022/12/23 12:59:19;;;;;;;87.50;30.83;;;6.80;97.60;;;;;;5042707;28;20195;-93
2022/12/23 13:01:51;;;;;;;73.27;29.73;;;6.80;97.60;;;;;;5042513;28;20184;-92
2022/12/23 13:04:32;;;;;;;69.90;28.47;;;6.80;97.60;;;;;;5042592;28;20657;-93
2022/12/23 13:07:27;;;;;;;72.40;29.00;;;6.80;97.60;;;;;;5041718;28;20192;-93
2022/12/23 13:10:30;;;;;;;61.50;25.90;;;6.80;97.60;;;;;;5047629;28;20169;-93
2022/12/23 13:13:25;;;;;;;103.13;38.40;;;6.90;97.60;;;;;;5047872;28;20260;-94
2022/12/23 13:16:17;;;;;;;81.67;34.50;;;6.80;97.60;;;;;;5024027;28;20215;-93
2022/12/23 13:18:42;;;;;;;103.97;42.13;;;6.90;97.70;;;;;;5021835;28;20220;-93
2022/12/23 13:21:36;;;;;;;67.77;28.83;;;7.00;97.60;;;;;;5038814;28;20180;-93
2022/12/23 13:24:20;;;;;;;58.37;26.43;;;6.90;97.60;;;;;;5047225;28;20205;-92
2022/12/23 13:27:06;;;;;;;61.73;27.07;;;6.90;97.60;;;;;;5035601;28;20206;-91
2022/12/23 13:29:53;;;;;;;62.43;26.53;;;6.90;97.60;;;;;;5045043;28;20255;-92
2022/12/23 13:32:45;;;;;;;62.03;26.53;;;6.80;97.60;;;;;;5038311;28;20180;-92
2022/12/23 13:35:47;;;;;;;64.40;27.43;;;6.80;97.60;;;;;;5037132;28;20200;-92
2022/12/23 13:38:50;;;;;;;59.50;26.37;;;6.80;97.50;;;;;;5036417;28;20172;-90
2022/12/23 13:41:26;;;;;;;57.80;24.70;;;6.80;97.50;;;;;;5035266;28;20172;-91
2022/12/23 13:43:54;;;;;;;56.30;25.97;;;6.70;97.50;;;;;;5034325;28;20188;-91
2022/12/23 13:46:38;;;;;;;54.47;25.27;;;6.80;97.50;;;;;;5033096;28;20200;-91
2022/12/23 13:49:07;;;;;;;58.67;27.47;;;6.70;97.50;;;;;;5034413;28;20153;-91
2022/12/23 13:51:40;;;;;;;63.10;28.87;;;6.70;97.50;;;;;;5034210;28;20251;-91
2022/12/23 13:54:34;;;;;;;58.90;26.93;;;6.70;97.50;;;;;;5034335;28;20219;-91
2022/12/23 13:57:16;;;;;;;54.93;24.93;;;6.70;97.50;;;;;;5034237;28;20208;-92
2022/12/23 13:59:55;;;;;;;60.73;26.80;;;6.70;97.50;;;;;;5033467;28;20565;-92
2022/12/23 14:02:35;;;;;;;60.13;26.33;;;6.80;97.50;;;;;;5034088;28;20252;-92
2022/12/23 14:05:03;;;;;;;66.03;28.53;;;6.80;97.50;;;;;;5034040;28;20205;-91
2022/12/23 14:07:31;;;;;;;60.07;26.87;;;6.80;97.50;;;;;;5035070;28;20187;-92
2022/12/23 14:10:09;;;;;;;56.77;27.00;;;6.70;97.40;;;;;;5036859;28;20179;-91
2022/12/23 14:12:38;;;;;;;59.97;28.23;;;6.70;97.40;;;;;;5036218;28;20661;-90